Time;durP1;ratioP1;P1;durP2;ratioP2;P2;SDS_P1;SDS_P2;PMS_P1;PMS_P2;Temp;Humidity;BMP_temperature;BMP_pressure;BME280_temperature;BME280_humidity;BME280_pressure;Samples;Min_cycle;Max_cycle;Signal;HPM_P1;HPM_P2
2022/01/18 00:01:52;;;;;;;88.07;22.77;;;;;;;;;;5016035;28;20013;-49
2022/01/18 00:04:17;;;;;;;67.25;22.52;;;;;;;;;;5015878;28;20088;-50
2022/01/18 00:06:47;;;;;;;63.67;21.10;;;;;;;;;;5015736;28;20034;-49
2022/01/18 00:09:12;;;;;;;41.63;16.58;;;;;;;;;;5015505;28;20056;-51
2022/01/18 00:11:47;;;;;;;42.65;19.70;;;;;;;;;;4998158;28;20481;-51
2022/01/18 00:14:23;;;;;;;35.50;17.10;;;;;;;;;;5015704;28;20480;-48
2022/01/18 00:19:26;;;;;;;42.25;15.60;;;;;;;;;;5015640;28;20030;-49
2022/01/18 00:22:07;;;;;;;37.40;16.88;;;;;;;;;;5015511;28;20076;-51
2022/01/18 00:24:32;;;;;;;126.85;25.58;;;;;;;;;;5015513;28;20028;-48
2022/01/18 00:26:57;;;;;;;50.38;18.77;;;;;;;;;;5015312;28;20030;-51
2022/01/18 00:29:25;;;;;;;64.57;20.60;;;;;;;;;;5015241;28;20022;-49
2022/01/18 00:32:03;;;;;;;57.97;20.88;;;;;;;;;;5015408;28;20080;-49
2022/01/18 00:34:32;;;;;;;51.38;20.73;;;;;;;;;;5015341;28;20549;-51
2022/01/18 00:37:23;;;;;;;75.00;26.70;;;;;;;;;;5015195;28;20393;-50
2022/01/18 00:39:43;;;;;;;89.85;29.75;;;;;;;;;;5014734;28;20109;-49
2022/01/18 00:42:09;;;;;;;83.80;25.77;;;;;;;;;;5015269;28;20057;-49
2022/01/18 00:44:34;;;;;;;71.07;27.83;;;;;;;;;;5015214;28;20029;-51
2022/01/18 00:47:00;;;;;;;75.95;28.10;;;;;;;;;;5015068;28;20026;-51
2022/01/18 00:49:26;;;;;;;66.97;25.73;;;;;;;;;;5015107;28;20018;-51
2022/01/18 00:51:57;;;;;;;55.33;24.30;;;;;;;;;;5015814;28;20022;-48
2022/01/18 00:54:28;;;;;;;57.88;22.92;;;;;;;;;;5015250;28;20608;-48
2022/01/18 00:56:54;;;;;;;69.38;22.20;;;;;;;;;;5015481;28;20061;-49
2022/01/18 00:59:21;;;;;;;168.63;27.60;;;;;;;;;;5014924;28;20021;-48
2022/01/18 01:01:48;;;;;;;75.38;22.75;;;;;;;;;;5014872;28;20445;-48
2022/01/18 01:04:13;;;;;;;150.68;27.92;;;;;;;;;;5014894;28;20014;-48
2022/01/18 01:06:39;;;;;;;99.55;23.75;;;;;;;;;;5014701;28;20026;-48
2022/01/18 01:09:05;;;;;;;90.50;24.92;;;;;;;;;;5014571;28;20129;-49
2022/01/18 01:11:36;;;;;;;224.73;26.60;;;;;;;;;;5014711;28;20017;-48
2022/01/18 01:14:02;;;;;;;157.07;25.63;;;;;;;;;;5014736;28;20080;-50
2022/01/18 01:33:19;;;;;;;186.15;24.45;;;;;;;;;;5014647;28;20037;-48
2022/01/18 01:36:07;;;;;;;66.63;21.35;;;;;;;;;;5014159;28;20401;-49
2022/01/18 01:44:07;;;;;;;92.28;23.80;;;;;;;;;;5014641;28;20491;-49
2022/01/18 01:46:33;;;;;;;96.80;24.40;;;;;;;;;;5014383;28;20481;-51
2022/01/18 01:49:00;;;;;;;87.20;22.77;;;;;;;;;;5014276;28;20076;-50
2022/01/18 01:51:30;;;;;;;93.07;25.23;;;;;;;;;;5014222;28;20100;-50
2022/01/18 01:53:56;;;;;;;52.88;16.55;;;;;;;;;;5014212;28;20381;-49
2022/01/18 01:56:21;;;;;;;72.68;21.80;;;;;;;;;;5014141;28;20355;-49
2022/01/18 01:58:47;;;;;;;62.85;21.83;;;;;;;;;;5014160;28;20051;-48
2022/01/18 02:01:12;;;;;;;92.53;23.60;;;;;;;;;;5014172;28;20461;-49
2022/01/18 02:03:37;;;;;;;140.43;24.20;;;;;;;;;;5014175;28;20414;-48
2022/01/18 02:06:03;;;;;;;80.45;21.20;;;;;;;;;;5014265;28;20029;-51
2022/01/18 02:08:28;;;;;;;137.98;22.50;;;;;;;;;;5013838;28;20046;-51
2022/01/18 02:10:54;;;;;;;75.47;22.83;;;;;;;;;;5014095;28;20044;-48
2022/01/18 02:13:20;;;;;;;96.78;20.65;;;;;;;;;;5014141;28;20029;-48
2022/01/18 02:24:02;;;;;;;77.95;18.67;;;;;;;;;;4934798;29;20427;-48
2022/01/18 02:26:28;;;;;;;50.03;15.93;;;;;;;;;;4934493;29;20163;-49
2022/01/18 02:28:53;;;;;;;190.65;24.85;;;;;;;;;;4934400;29;20059;-51
2022/01/18 02:31:19;;;;;;;90.80;17.70;;;;;;;;;;4934266;29;20130;-49
2022/01/18 02:33:44;;;;;;;103.00;17.83;;;;;;;;;;4934358;29;20035;-50
2022/01/18 02:36:10;;;;;;;44.30;15.35;;;;;;;;;;4934365;29;20032;-51
2022/01/18 02:38:36;;;;;;;30.20;12.77;;;;;;;;;;4934223;29;20034;-51
2022/01/18 02:41:01;;;;;;;223.00;23.42;;;;;;;;;;4935156;29;20106;-49
2022/01/18 02:43:47;;;;;;;147.15;21.70;;;;;;;;;;4937765;29;20051;-49
2022/01/18 02:46:12;;;;;;;62.35;14.63;;;;;;;;;;4937819;29;20050;-48
2022/01/18 02:48:38;;;;;;;46.47;14.25;;;;;;;;;;4937651;29;20035;-48
2022/01/18 02:51:04;;;;;;;35.42;13.50;;;;;;;;;;4937683;29;20495;-48
2022/01/18 02:53:30;;;;;;;15.40;9.55;;;;;;;;;;4937690;29;20059;-52
2022/01/18 02:55:56;;;;;;;49.92;11.80;;;;;;;;;;4990259;28;20044;-48
2022/01/18 02:58:28;;;;;;;100.70;16.33;;;;;;;;;;5017049;28;20097;-49
2022/01/18 03:03:38;;;;;;;113.03;15.13;;;;;;;;;;5017327;28;20036;-50
2022/01/18 03:06:04;;;;;;;80.43;13.40;;;;;;;;;;5016804;28;20489;-48
2022/01/18 03:08:30;;;;;;;81.75;11.85;;;;;;;;;;5016707;28;20516;-49
2022/01/18 03:10:55;;;;;;;27.20;10.82;;;;;;;;;;5016819;28;20485;-49
2022/01/18 03:13:21;;;;;;;57.58;12.65;;;;;;;;;;5016825;28;20018;-48
2022/01/18 03:15:46;;;;;;;30.08;10.02;;;;;;;;;;5016792;28;20445;-48
2022/01/18 03:18:11;;;;;;;230.10;19.63;;;;;;;;;;5016175;28;20029;-49
2022/01/18 03:20:37;;;;;;;40.58;11.30;;;;;;;;;;5016697;28;20021;-51
2022/01/18 03:23:07;;;;;;;51.85;11.02;;;;;;;;;;5016782;28;20037;-49
2022/01/18 03:28:05;;;;;;;32.42;10.70;;;;;;;;;;5017976;28;20108;-48
2022/01/18 03:30:31;;;;;;;46.47;10.98;;;;;;;;;;5016588;28;20029;-48
2022/01/18 03:32:58;;;;;;;44.70;12.90;;;;;;;;;;5016439;28;20022;-48
2022/01/18 03:35:23;;;;;;;37.70;15.75;;;;;;;;;;5016520;28;20014;-48
2022/01/18 03:37:49;;;;;;;81.53;16.38;;;;;;;;;;5016448;28;20426;-48
2022/01/18 03:40:14;;;;;;;45.90;13.70;;;;;;;;;;5016419;28;20026;-48
2022/01/18 03:45:06;;;;;;;75.70;14.30;;;;;;;;;;5016191;28;20057;-51
2022/01/18 03:47:32;;;;;;;39.35;13.82;;;;;;;;;;5016256;28;20076;-48
2022/01/18 03:49:58;;;;;;;51.75;14.38;;;;;;;;;;5016094;28;20085;-49
2022/01/18 03:52:23;;;;;;;64.05;13.32;;;;;;;;;;5015579;28;20029;-49
2022/01/18 03:54:50;;;;;;;46.47;12.57;;;;;;;;;;5016097;28;20427;-51
2022/01/18 03:57:16;;;;;;;54.28;13.75;;;;;;;;;;5016043;28;20026;-48
2022/01/18 03:59:41;;;;;;;57.50;13.60;;;;;;;;;;5015889;28;20488;-50
2022/01/18 04:02:09;;;;;;;40.35;14.52;;;;;;;;;;5015973;28;20018;-49
2022/01/18 04:04:35;;;;;;;45.92;16.13;;;;;;;;;;5015921;28;20462;-51
2022/01/18 04:07:00;;;;;;;48.80;13.75;;;;;;;;;;5015820;28;20025;-48
2022/01/18 04:09:25;;;;;;;58.05;15.38;;;;;;;;;;5015707;28;20041;-48
2022/01/18 04:11:51;;;;;;;53.97;15.52;;;;;;;;;;5015902;28;20021;-48
2022/01/18 04:14:16;;;;;;;34.17;11.70;;;;;;;;;;5015623;28;20017;-49
2022/01/18 04:17:34;;;;;;;36.08;13.77;;;;;;;;;;5015582;28;20040;-49
2022/01/18 04:27:23;;;;;;;57.50;11.20;;;;;;;;;;5015706;28;20084;-51
2022/01/18 04:29:48;;;;;;;45.65;9.65;;;;;;;;;;5015413;28;20022;-50
2022/01/18 04:32:13;;;;;;;41.10;10.52;;;;;;;;;;5015397;28;20025;-48
2022/01/18 04:34:40;;;;;;;74.13;15.02;;;;;;;;;;5015328;28;20014;-49
2022/01/18 04:37:05;;;;;;;71.43;14.00;;;;;;;;;;5015127;28;20025;-49
2022/01/18 04:39:37;;;;;;;42.65;14.07;;;;;;;;;;5015212;28;20026;-49
2022/01/18 04:42:02;;;;;;;68.35;15.27;;;;;;;;;;5015260;28;20028;-50
2022/01/18 04:49:55;;;;;;;70.82;15.43;;;;;;;;;;5015468;28;20033;-49
2022/01/18 04:52:20;;;;;;;67.10;12.82;;;;;;;;;;5015029;28;20029;-51
2022/01/18 04:54:56;;;;;;;61.35;14.85;;;;;;;;;;5015156;28;20104;-52
2022/01/18 04:59:47;;;;;;;57.70;13.63;;;;;;;;;;5014999;28;20034;-49
2022/01/18 05:02:12;;;;;;;61.30;14.57;;;;;;;;;;5014857;28;20018;-49
2022/01/18 05:04:37;;;;;;;61.67;12.55;;;;;;;;;;5014103;28;20018;-49
2022/01/18 05:07:02;;;;;;;60.53;12.52;;;;;;;;;;5014741;28;20022;-49
2022/01/18 05:09:28;;;;;;;94.78;14.32;;;;;;;;;;5014579;28;20050;-50
2022/01/18 05:12:05;;;;;;;76.47;13.65;;;;;;;;;;5014802;28;20156;-51
2022/01/18 05:14:33;;;;;;;87.75;14.10;;;;;;;;;;5014763;28;20021;-50
2022/01/18 05:24:52;;;;;;;35.45;11.57;;;;;;;;;;5014572;28;20087;-50
2022/01/18 05:27:17;;;;;;;63.38;12.25;;;;;;;;;;5014505;28;20431;-52
2022/01/18 05:29:42;;;;;;;84.65;14.40;;;;;;;;;;5014551;28;20014;-50
2022/01/18 05:32:07;;;;;;;47.83;12.80;;;;;;;;;;5014618;28;20018;-49
2022/01/18 05:34:33;;;;;;;107.28;14.50;;;;;;;;;;5014493;28;20052;-49
2022/01/18 05:36:58;;;;;;;44.60;13.73;;;;;;;;;;5014142;28;20469;-52
2022/01/18 05:39:23;;;;;;;51.22;13.73;;;;;;;;;;5014262;28;20022;-52
2022/01/18 05:41:48;;;;;;;30.95;11.20;;;;;;;;;;4996773;28;20050;-51
2022/01/18 05:44:15;;;;;;;60.22;14.18;;;;;;;;;;4996793;28;20440;-51
2022/01/18 05:46:40;;;;;;;85.50;14.82;;;;;;;;;;5014206;28;20018;-51
2022/01/18 05:49:05;;;;;;;69.68;14.65;;;;;;;;;;5014279;28;20025;-51
2022/01/18 05:51:31;;;;;;;87.45;17.45;;;;;;;;;;4996839;28;20026;-49
2022/01/18 05:53:56;;;;;;;55.53;17.17;;;;;;;;;;5014170;28;20045;-50
2022/01/18 05:56:21;;;;;;;94.18;17.25;;;;;;;;;;5014100;28;20453;-50
2022/01/18 05:58:48;;;;;;;81.43;17.08;;;;;;;;;;5014178;28;20041;-52
2022/01/18 06:01:21;;;;;;;91.72;16.77;;;;;;;;;;5014058;28;20496;-49
2022/01/18 06:09:07;;;;;;;62.78;14.27;;;;;;;;;;5013990;28;20539;-52
2022/01/18 06:11:32;;;;;;;83.50;16.55;;;;;;;;;;5014095;28;20034;-50
2022/01/18 06:13:58;;;;;;;67.90;14.82;;;;;;;;;;5013984;28;20022;-51
2022/01/18 06:16:23;;;;;;;75.15;15.77;;;;;;;;;;5017210;28;20032;-49
2022/01/18 06:18:49;;;;;;;84.03;18.35;;;;;;;;;;5017739;28;20096;-49
2022/01/18 06:21:14;;;;;;;80.00;17.10;;;;;;;;;;5017570;28;20029;-49
2022/01/18 06:23:39;;;;;;;64.68;14.00;;;;;;;;;;5017501;28;20022;-53
2022/01/18 06:26:04;;;;;;;64.20;24.00;;;;;;;;;;5016469;28;20025;-54
2022/01/18 06:28:31;;;;;;;56.88;15.07;;;;;;;;;;5017659;28;20033;-52
2022/01/18 06:30:56;;;;;;;75.53;14.73;;;;;;;;;;5017048;28;20025;-51
2022/01/18 06:33:22;;;;;;;46.63;13.88;;;;;;;;;;5022048;28;20021;-54
2022/01/18 06:35:48;;;;;;;62.17;14.18;;;;;;;;;;5016232;28;20034;-52
2022/01/18 06:38:13;;;;;;;83.70;18.58;;;;;;;;;;5010491;28;20531;-54
2022/01/18 06:40:40;;;;;;;65.60;15.73;;;;;;;;;;5011708;28;20026;-54
2022/01/18 06:43:07;;;;;;;96.38;16.08;;;;;;;;;;5001484;28;20077;-51
2022/01/18 06:45:33;;;;;;;89.00;16.40;;;;;;;;;;5010462;28;20029;-54
2022/01/18 06:47:59;;;;;;;72.60;16.17;;;;;;;;;;5015266;28;20022;-51
2022/01/18 06:50:24;;;;;;;81.32;16.20;;;;;;;;;;5011638;28;20025;-54
2022/01/18 06:52:49;;;;;;;94.05;17.02;;;;;;;;;;5017949;28;20503;-54
2022/01/18 06:55:14;;;;;;;81.60;15.50;;;;;;;;;;5013836;28;20029;-52
2022/01/18 06:57:40;;;;;;;62.83;14.50;;;;;;;;;;5012688;28;20087;-51
2022/01/18 07:00:06;;;;;;;95.82;16.67;;;;;;;;;;5003043;28;20025;-51
2022/01/18 07:02:31;;;;;;;44.38;13.30;;;;;;;;;;5004925;28;20631;-50
2022/01/18 07:04:58;;;;;;;66.32;15.07;;;;;;;;;;5003129;28;20377;-53
2022/01/18 07:07:23;;;;;;;60.15;14.43;;;;;;;;;;5008093;28;20044;-52
2022/01/18 07:09:49;;;;;;;62.50;13.90;;;;;;;;;;4998494;28;20038;-53
2022/01/18 07:12:15;;;;;;;80.78;14.15;;;;;;;;;;4983020;28;22138;-52
2022/01/18 07:14:40;;;;;;;49.28;13.20;;;;;;;;;;4992146;28;20030;-52
2022/01/18 07:17:06;;;;;;;73.53;12.85;;;;;;;;;;4985134;28;20626;-52
2022/01/18 07:19:32;;;;;;;78.43;14.95;;;;;;;;;;4958419;28;20740;-51
2022/01/18 07:21:57;;;;;;;55.92;12.63;;;;;;;;;;4950924;28;20018;-52
2022/01/18 07:24:43;;;;;;;68.10;12.60;;;;;;;;;;4946910;28;20056;-51
2022/01/18 07:27:10;;;;;;;106.60;14.82;;;;;;;;;;4920562;28;20037;-54
2022/01/18 07:29:36;;;;;;;54.22;11.95;;;;;;;;;;4875823;28;20038;-54
2022/01/18 07:32:02;;;;;;;48.05;11.40;;;;;;;;;;4836204;28;20661;-53
2022/01/18 07:34:27;;;;;;;53.85;12.38;;;;;;;;;;4834072;28;20100;-51
2022/01/18 07:36:54;;;;;;;46.03;10.88;;;;;;;;;;4869523;28;20164;-51
2022/01/18 07:39:19;;;;;;;48.55;11.98;;;;;;;;;;4882441;28;20096;-51
2022/01/18 07:41:44;;;;;;;52.78;13.15;;;;;;;;;;4904003;28;20607;-51
2022/01/18 07:44:09;;;;;;;51.63;12.23;;;;;;;;;;4917729;28;20025;-52
2022/01/18 07:46:35;;;;;;;43.45;11.85;;;;;;;;;;4890872;28;20032;-51
2022/01/18 07:49:01;;;;;;;57.35;15.25;;;;;;;;;;4931893;28;20047;-52
2022/01/18 07:51:26;;;;;;;47.47;12.75;;;;;;;;;;4926084;28;20045;-53
2022/01/18 07:53:51;;;;;;;54.13;14.57;;;;;;;;;;4927450;28;20054;-51
2022/01/18 07:56:16;;;;;;;60.97;13.73;;;;;;;;;;4889212;28;20022;-52
2022/01/18 07:58:42;;;;;;;60.92;14.25;;;;;;;;;;4882176;28;20028;-51
2022/01/18 08:01:07;;;;;;;62.67;13.35;;;;;;;;;;4865380;28;20111;-50
2022/01/18 08:03:33;;;;;;;73.20;14.20;;;;;;;;;;4867131;28;20140;-51
2022/01/18 08:05:59;;;;;;;56.45;13.85;;;;;;;;;;4843982;28;20129;-53
2022/01/18 08:08:26;;;;;;;53.85;12.27;;;;;;;;;;4812329;28;20136;-51
2022/01/18 08:10:51;;;;;;;34.22;10.65;;;;;;;;;;4748623;28;23660;-51
2022/01/18 08:13:16;;;;;;;47.50;11.68;;;;;;;;;;4689162;28;21960;-53
2022/01/18 08:15:44;;;;;;;31.55;8.63;;;;;;;;;;4643706;28;22531;-54
2022/01/18 08:18:11;;;;;;;41.70;10.95;;;;;;;;;;4669519;28;20037;-50
2022/01/18 08:20:37;;;;;;;29.75;10.00;;;;;;;;;;4584974;28;20060;-51
2022/01/18 08:23:04;;;;;;;37.70;10.85;;;;;;;;;;4598127;28;21286;-52
2022/01/18 08:25:30;;;;;;;42.42;10.75;;;;;;;;;;4581418;28;20290;-52
2022/01/18 08:28:02;;;;;;;46.58;11.18;;;;;;;;;;4605261;28;22060;-52
2022/01/18 08:30:30;;;;;;;34.22;9.98;;;;;;;;;;4664922;28;20463;-50
2022/01/18 08:32:55;;;;;;;42.53;10.90;;;;;;;;;;4722459;28;20060;-53
2022/01/18 08:35:22;;;;;;;41.55;10.65;;;;;;;;;;4728735;28;20638;-51
2022/01/18 08:37:47;;;;;;;34.05;10.02;;;;;;;;;;4731234;28;20141;-52
2022/01/18 08:40:13;;;;;;;38.55;10.13;;;;;;;;;;4716887;28;20029;-50
2022/01/18 08:42:38;;;;;;;36.35;9.63;;;;;;;;;;4690320;28;23540;-54
2022/01/18 08:45:04;;;;;;;53.47;10.38;;;;;;;;;;4740436;28;20753;-52
2022/01/18 08:47:29;;;;;;;61.08;11.07;;;;;;;;;;4703917;28;20029;-52
2022/01/18 08:49:54;;;;;;;57.50;12.23;;;;;;;;;;4732870;28;20121;-52
2022/01/18 08:52:20;;;;;;;48.03;12.23;;;;;;;;;;4720559;28;20905;-53
2022/01/18 08:54:45;;;;;;;52.75;11.57;;;;;;;;;;4689200;28;20033;-51
2022/01/18 08:57:11;;;;;;;45.20;12.13;;;;;;;;;;4711710;28;20822;-53
2022/01/18 08:59:37;;;;;;;52.72;12.98;;;;;;;;;;4704288;28;20164;-51
2022/01/18 09:02:05;;;;;;;47.03;12.00;;;;;;;;;;4706161;28;20022;-54
2022/01/18 09:04:30;;;;;;;50.97;12.40;;;;;;;;;;4700118;28;20029;-54
2022/01/18 09:06:56;;;;;;;49.47;11.90;;;;;;;;;;4714042;28;20116;-53
2022/01/18 09:09:22;;;;;;;49.42;13.32;;;;;;;;;;4718870;28;20049;-51
2022/01/18 09:11:47;;;;;;;46.22;11.98;;;;;;;;;;4704706;28;20906;-54
2022/01/18 09:14:13;;;;;;;57.95;12.70;;;;;;;;;;4764442;28;20147;-54
2022/01/18 09:16:38;;;;;;;53.90;14.63;;;;;;;;;;4757609;28;20049;-51
2022/01/18 09:19:04;;;;;;;56.25;13.05;;;;;;;;;;4690062;28;20589;-52
2022/01/18 09:21:31;;;;;;;56.85;14.57;;;;;;;;;;4655747;28;21248;-52
2022/01/18 09:23:57;;;;;;;61.42;15.10;;;;;;;;;;4642170;28;22095;-53
2022/01/18 09:26:22;;;;;;;57.63;13.23;;;;;;;;;;4701154;28;20033;-49
2022/01/18 09:28:47;;;;;;;52.25;14.07;;;;;;;;;;4629618;28;21771;-53
2022/01/18 09:31:22;;;;;;;55.42;13.98;;;;;;;;;;4678727;28;21354;-51
2022/01/18 09:33:53;;;;;;;57.53;14.48;;;;;;;;;;4728128;28;23223;-50
2022/01/18 09:36:18;;;;;;;52.75;14.75;;;;;;;;;;4739643;28;22433;-50
2022/01/18 09:38:46;;;;;;;61.90;16.30;;;;;;;;;;4712030;28;20030;-53
2022/01/18 09:41:12;;;;;;;63.00;17.33;;;;;;;;;;4726513;28;20037;-51
2022/01/18 09:43:38;;;;;;;57.40;15.40;;;;;;;;;;4722401;28;20022;-51
2022/01/18 09:46:04;;;;;;;69.65;17.85;;;;;;;;;;4731255;28;21465;-52
2022/01/18 09:48:30;;;;;;;57.42;16.27;;;;;;;;;;4666933;28;20025;-49
2022/01/18 09:50:59;;;;;;;56.40;15.93;;;;;;;;;;4678539;28;21810;-52
2022/01/18 09:53:33;;;;;;;56.45;15.80;;;;;;;;;;4683160;28;20098;-48
2022/01/18 09:55:58;;;;;;;52.53;19.60;;;;;;;;;;4675394;28;21979;-51
2022/01/18 09:58:24;;;;;;;43.95;15.43;;;;;;;;;;4646508;28;21623;-52
2022/01/18 10:00:50;;;;;;;44.67;16.08;;;;;;;;;;4641639;28;20801;-50
2022/01/18 10:03:31;;;;;;;50.63;15.82;;;;;;;;;;4628004;28;20362;-51
2022/01/18 10:05:59;;;;;;;45.80;15.80;;;;;;;;;;4547012;28;20236;-53
2022/01/18 10:08:25;;;;;;;58.88;17.48;;;;;;;;;;4584820;28;20072;-52
2022/01/18 10:10:51;;;;;;;46.55;17.17;;;;;;;;;;4508018;28;21877;-51
2022/01/18 10:13:18;;;;;;;38.58;15.63;;;;;;;;;;4470440;28;20037;-51
2022/01/18 10:16:02;;;;;;;42.10;16.40;;;;;;;;;;4587057;28;21260;-50
2022/01/18 10:18:39;;;;;;;55.38;17.67;;;;;;;;;;4668493;28;20252;-50
2022/01/18 10:21:07;;;;;;;56.28;17.83;;;;;;;;;;4682212;28;20023;-50
2022/01/18 10:23:32;;;;;;;46.05;18.58;;;;;;;;;;4702850;28;20033;-52
2022/01/18 10:26:21;;;;;;;52.70;18.58;;;;;;;;;;4703273;28;20030;-50
2022/01/18 10:28:46;;;;;;;44.03;18.42;;;;;;;;;;4689382;28;21251;-51
2022/01/18 10:31:31;;;;;;;53.65;18.98;;;;;;;;;;4712196;28;20736;-53
2022/01/18 10:36:53;;;;;;;52.88;19.00;;;;;;;;;;4658774;28;21700;-50
2022/01/18 10:39:24;;;;;;;42.90;16.75;;;;;;;;;;4703550;28;20034;-49
2022/01/18 10:41:50;;;;;;;44.08;19.50;;;;;;;;;;4706273;28;20045;-51
2022/01/18 10:44:16;;;;;;;51.75;21.70;;;;;;;;;;4670469;28;22271;-52
2022/01/18 10:46:53;;;;;;;51.22;20.25;;;;;;;;;;4718530;28;20953;-50
2022/01/18 10:49:33;;;;;;;48.40;21.02;;;;;;;;;;4649802;28;21651;-52
2022/01/18 10:52:04;;;;;;;52.90;21.75;;;;;;;;;;4587960;28;20877;-52
2022/01/18 10:54:33;;;;;;;49.47;19.80;;;;;;;;;;4640890;28;22437;-49
2022/01/18 10:57:00;;;;;;;54.72;20.23;;;;;;;;;;4626933;28;20033;-52
2022/01/18 10:59:26;;;;;;;59.22;22.40;;;;;;;;;;4659859;28;22751;-49
2022/01/18 11:02:10;;;;;;;58.55;24.13;;;;;;;;;;4699708;28;22907;-49
2022/01/18 11:04:45;;;;;;;62.40;23.95;;;;;;;;;;4702443;28;20613;-49
2022/01/18 11:07:11;;;;;;;53.47;23.20;;;;;;;;;;4745912;28;22053;-52
2022/01/18 11:09:37;;;;;;;62.55;26.55;;;;;;;;;;4736944;23;20181;-52
2022/01/18 11:12:07;;;;;;;63.67;26.38;;;;;;;;;;4710180;28;20964;-52
2022/01/18 11:14:38;;;;;;;67.22;27.13;;;;;;;;;;4724425;28;20745;-49
2022/01/18 11:17:03;;;;;;;;;;;;;;;;;;4724365;28;23244;-52
2022/01/18 11:19:34;;;;;;;71.05;26.73;;;;;;;;;;4715904;28;22896;-49
2022/01/18 11:22:07;;;;;;;65.82;29.65;;;;;;;;;;4722387;28;22175;-53
2022/01/18 11:24:34;;;;;;;73.25;29.77;;;;;;;;;;4630753;28;20041;-49
2022/01/18 11:27:00;;;;;;;69.43;29.25;;;;;;;;;;4683069;28;20037;-52
2022/01/18 11:29:26;;;;;;;84.45;33.85;;;;;;;;;;4736868;28;20077;-51
2022/01/18 11:32:02;;;;;;;89.70;35.45;;;;;;;;;;4730430;28;23518;-49
2022/01/18 11:34:41;;;;;;;103.72;34.92;;;;;;;;;;4715720;28;21695;-49
2022/01/18 11:37:21;;;;;;;89.53;34.75;;;;;;;;;;4744768;28;24290;-51
2022/01/18 11:40:06;;;;;;;98.30;37.72;;;;;;;;;;4750988;28;20030;-50
2022/01/18 11:42:39;;;;;;;98.10;37.05;;;;;;;;;;4822844;28;23153;-51
2022/01/18 11:45:34;;;;;;;92.53;37.50;;;;;;;;;;4834656;28;20032;-51
2022/01/18 11:48:00;;;;;;;89.20;34.28;;;;;;;;;;4861773;28;20042;-52
2022/01/18 11:50:29;;;;;;;98.95;39.90;;;;;;;;;;4907945;28;20040;-49
2022/01/18 11:53:26;;;;;;;85.50;35.55;;;;;;;;;;4900986;28;20718;-52
2022/01/18 11:55:53;;;;;;;92.10;36.08;;;;;;;;;;4888739;28;20042;-49
2022/01/18 11:58:18;;;;;;;87.28;34.67;;;;;;;;;;4918419;28;20041;-50
2022/01/18 12:00:52;;;;;;;91.95;34.95;;;;;;;;;;4895286;28;20026;-52
2022/01/18 12:03:22;;;;;;;86.78;36.35;;;;;;;;;;4903005;28;20032;-48
2022/01/18 12:05:51;;;;;;;81.55;32.40;;;;;;;;;;4893092;28;20026;-51
2022/01/18 12:08:39;;;;;;;85.38;34.22;;;;;;;;;;4916023;28;20030;-48
2022/01/18 12:11:06;;;;;;;85.07;32.58;;;;;;;;;;4884719;28;20458;-48
2022/01/18 12:13:33;;;;;;;68.00;30.77;;;;;;;;;;4904731;28;20047;-50
2022/01/18 12:16:00;;;;;;;67.68;28.55;;;;;;;;;;4922195;28;20517;-49
2022/01/18 12:18:29;;;;;;;74.40;30.23;;;;;;;;;;4922076;28;20027;-49
2022/01/18 12:21:01;;;;;;;77.32;30.15;;;;;;;;;;4935066;28;21546;-48
2022/01/18 12:23:33;;;;;;;74.00;30.27;;;;;;;;;;4943253;28;20030;-49
2022/01/18 12:26:20;;;;;;;81.82;31.98;;;;;;;;;;4939476;28;20114;-48
2022/01/18 12:34:30;;;;;;;71.50;29.05;;;;;;;;;;4930544;28;20027;-49
2022/01/18 12:37:27;;;;;;;71.10;29.30;;;;;;;;;;4943240;28;20446;-52
2022/01/18 12:39:57;;;;;;;70.00;29.42;;;;;;;;;;4948988;28;20019;-50
2022/01/18 12:44:20;;;;;;;70.50;29.73;;;;;;;;;;4951928;28;20389;-49
2022/01/18 12:45:08;;;;;;;74.57;31.42;;;;;;;;;;4953977;28;20034;-52
2022/01/18 12:47:37;;;;;;;61.20;26.05;;;;;;;;;;4936984;28;20062;-51
2022/01/18 12:50:05;;;;;;;60.25;29.20;;;;;;;;;;4938452;28;20058;-51
2022/01/18 12:52:52;;;;;;;51.35;24.63;;;;;;;;;;4939389;28;20110;-49
2022/01/18 12:55:24;;;;;;;59.42;27.42;;;;;;;;;;4946993;28;20039;-52
2022/01/18 12:58:14;;;;;;;59.10;28.50;;;;;;;;;;4951534;28;20027;-49
2022/01/18 13:00:52;;;;;;;45.67;23.13;;;;;;;;;;4944662;28;20066;-51
2022/01/18 13:03:21;;;;;;;45.80;21.00;;;;;;;;;;4941990;28;20035;-49
2022/01/18 13:05:47;;;;;;;31.98;14.55;;;;;;;;;;4941998;28;20130;-49
2022/01/18 13:08:14;;;;;;;33.08;17.00;;;;;;;;;;4944350;28;20045;-49
2022/01/18 13:10:41;;;;;;;43.92;21.73;;;;;;;;;;4963136;28;20144;-48
2022/01/18 13:13:06;;;;;;;44.30;21.50;;;;;;;;;;4972529;28;20030;-50
2022/01/18 13:15:39;;;;;;;46.53;20.27;;;;;;;;;;4970950;28;20018;-48
2022/01/18 13:26:36;;;;;;;35.78;15.77;;;;;;;;;;4987248;28;20452;-48
2022/01/18 13:29:22;;;;;;;30.67;17.08;;;;;;;;;;4977130;28;20033;-50
2022/01/18 13:32:08;;;;;;;41.85;18.45;;;;;;;;;;4977683;28;20040;-48
2022/01/18 13:34:38;;;;;;;42.13;21.42;;;;;;;;;;4979275;28;20050;-48
2022/01/18 13:37:08;;;;;;;43.80;18.33;;;;;;;;;;4983421;28;20082;-49
2022/01/18 13:39:37;;;;;;;39.08;17.70;;;;;;;;;;4982078;28;20285;-48
2022/01/18 13:42:06;;;;;;;45.00;19.17;;;;;;;;;;4987236;28;20026;-48
2022/01/18 13:44:31;;;;;;;41.42;18.95;;;;;;;;;;4981768;28;20026;-50
2022/01/18 13:47:16;;;;;;;45.38;19.17;;;;;;;;;;4980597;28;26840;-48
2022/01/18 13:49:42;;;;;;;46.22;17.23;;;;;;;;;;4986235;28;20092;-50
2022/01/18 13:52:09;;;;;;;41.03;16.42;;;;;;;;;;4988343;28;20022;-48
2022/01/18 13:54:48;;;;;;;48.78;19.42;;;;;;;;;;4990913;28;20033;-49
2022/01/18 13:57:15;;;;;;;49.13;20.40;;;;;;;;;;4980630;28;20084;-48
2022/01/18 13:59:40;;;;;;;49.83;19.85;;;;;;;;;;4978199;28;20496;-50
2022/01/18 14:02:14;;;;;;;51.85;19.20;;;;;;;;;;4974617;28;20790;-50
2022/01/18 14:04:40;;;;;;;53.92;19.33;;;;;;;;;;4984210;28;20026;-51
2022/01/18 14:07:05;;;;;;;43.08;17.13;;;;;;;;;;4981892;28;20085;-50
2022/01/18 14:09:33;;;;;;;41.95;17.15;;;;;;;;;;4978811;28;20826;-50
2022/01/18 14:11:59;;;;;;;45.10;19.17;;;;;;;;;;4973862;28;20022;-49
2022/01/18 14:14:25;;;;;;;49.63;19.55;;;;;;;;;;4990104;28;20056;-49
2022/01/18 14:17:14;;;;;;;42.47;18.77;;;;;;;;;;4984442;28;20052;-49
2022/01/18 14:19:41;;;;;;;33.63;13.43;;;;;;;;;;4990640;28;20465;-52
2022/01/18 14:22:26;;;;;;;32.92;13.57;;;;;;;;;;4989742;28;20019;-52
2022/01/18 14:24:57;;;;;;;33.47;13.07;;;;;;;;;;4987057;28;20029;-50
2022/01/18 14:27:22;;;;;;;;;;;;;;;;;;4992185;28;20081;-50
2022/01/18 14:29:51;;;;;;;31.20;14.98;;;;;;;;;;4990628;28;20365;-50
2022/01/18 14:32:26;;;;;;;30.08;13.63;;;;;;;;;;4989704;28;20117;-53
2022/01/18 14:34:56;;;;;;;27.63;13.38;;;;;;;;;;4993907;28;20022;-50
2022/01/18 14:37:33;;;;;;;31.58;14.05;;;;;;;;;;4994253;28;20038;-49
2022/01/18 14:40:00;;;;;;;31.17;13.68;;;;;;;;;;4992872;28;20064;-49
2022/01/18 14:42:34;;;;;;;32.40;13.77;;;;;;;;;;4989407;28;20245;-52
2022/01/18 14:45:18;;;;;;;33.42;14.05;;;;;;;;;;4990420;28;22104;-51
2022/01/18 14:47:48;;;;;;;28.45;14.13;;;;;;;;;;4988589;28;20157;-52
2022/01/18 14:50:21;;;;;;;30.52;13.68;;;;;;;;;;4994321;28;20396;-51
2022/01/18 14:52:49;;;;;;;36.85;15.85;;;;;;;;;;4989382;28;20045;-52
2022/01/18 14:55:20;;;;;;;41.83;15.20;;;;;;;;;;4992802;28;20041;-50
2022/01/18 14:57:51;;;;;;;34.78;14.43;;;;;;;;;;4994604;28;20029;-49
2022/01/18 15:00:21;;;;;;;33.70;14.85;;;;;;;;;;4991619;28;20053;-51
2022/01/18 15:02:47;;;;;;;36.53;15.55;;;;;;;;;;4992207;28;20021;-52
2022/01/18 15:05:12;;;;;;;30.58;14.80;;;;;;;;;;4994608;28;20030;-49
2022/01/18 15:07:39;;;;;;;41.15;15.25;;;;;;;;;;4996887;28;20397;-52
2022/01/18 15:10:06;;;;;;;37.65;14.98;;;;;;;;;;4993036;28;20065;-51
2022/01/18 15:12:32;;;;;;;35.17;15.20;;;;;;;;;;4992244;28;20088;-50
2022/01/18 15:14:57;;;;;;;36.95;14.48;;;;;;;;;;4997204;28;20081;-50
2022/01/18 15:17:25;;;;;;;40.33;15.30;;;;;;;;;;4995489;28;20025;-50
2022/01/18 15:19:50;;;;;;;37.03;15.27;;;;;;;;;;4995362;28;20025;-51
2022/01/18 15:22:16;;;;;;;33.97;16.00;;;;;;;;;;5006725;28;20026;-49
2022/01/18 15:24:41;;;;;;;37.47;15.55;;;;;;;;;;5004743;28;20734;-49
2022/01/18 15:27:06;;;;;;;36.33;15.02;;;;;;;;;;4995596;28;20026;-52
2022/01/18 15:29:32;;;;;;;37.22;15.45;;;;;;;;;;4998837;28;20028;-49
2022/01/18 15:31:58;;;;;;;40.13;16.15;;;;;;;;;;4997046;28;20025;-49
2022/01/18 15:34:24;;;;;;;40.75;15.18;;;;;;;;;;4996888;28;20025;-49
2022/01/18 15:36:49;;;;;;;36.58;16.40;;;;;;;;;;4997954;28;20025;-51
2022/01/18 15:39:14;;;;;;;35.72;14.98;;;;;;;;;;4998366;28;20018;-48
2022/01/18 15:41:41;;;;;;;41.00;14.85;;;;;;;;;;4997893;28;20104;-50
2022/01/18 15:44:08;;;;;;;42.97;15.88;;;;;;;;;;4996745;28;20032;-48
2022/01/18 15:46:33;;;;;;;36.58;15.60;;;;;;;;;;4996225;28;20053;-50
2022/01/18 15:48:58;;;;;;;42.35;15.70;;;;;;;;;;5003394;28;20077;-52
2022/01/18 15:51:26;;;;;;;41.28;16.88;;;;;;;;;;5005190;28;20024;-50